Time;durP1;ratioP1;P1;durP2;ratioP2;P2;SDS_P1;SDS_P2;PMS_P1;PMS_P2;Temp;Humidity;BMP_temperature;BMP_pressure;BME280_temperature;BME280_humidity;BME280_pressure;Samples;Min_cycle;Max_cycle;Signal;HPM_P1;HPM_P2
2021/04/05 00:00:40;;;;;;;6.23;3.80;;;;;;;;;;5011535;28;20241;-80
2021/04/05 00:03:08;;;;;;;4.80;3.70;;;;;;;;;;5012662;28;20220;-79
2021/04/05 00:05:38;;;;;;;6.97;3.83;;;;;;;;;;4995427;28;20237;-79
2021/04/05 00:08:07;;;;;;;5.27;3.77;;;;;;;;;;5010965;28;20244;-78
2021/04/05 00:10:38;;;;;;;7.13;3.77;;;;;;;;;;5116081;27;20861;-80
2021/04/05 00:13:08;;;;;;;4.87;3.57;;;;;;;;;;5089501;28;20271;-79
2021/04/05 00:15:36;;;;;;;14.40;8.13;;;;;;;;;;4994731;28;20608;-80
2021/04/05 00:18:04;;;;;;;6.77;4.80;;;;;;;;;;5009843;28;20254;-79
2021/04/05 00:20:35;;;;;;;7.87;4.60;;;;;;;;;;4994581;28;20247;-80
2021/04/05 00:23:04;;;;;;;7.13;4.73;;;;;;;;;;5025924;27;20231;-80
2021/04/05 00:25:32;;;;;;;5.97;4.07;;;;;;;;;;5096222;27;20244;-79
2021/04/05 00:28:01;;;;;;;5.93;4.80;;;;;;;;;;4983224;28;20232;-82
2021/04/05 00:30:31;;;;;;;7.73;4.50;;;;;;;;;;4991879;28;20225;-79
2021/04/05 00:32:59;;;;;;;7.43;4.77;;;;;;;;;;4982861;28;20329;-80
2021/04/05 00:35:28;;;;;;;7.70;4.77;;;;;;;;;;4991368;28;20239;-79
2021/04/05 00:37:56;;;;;;;6.03;4.87;;;;;;;;;;5017872;28;20243;-79
2021/04/05 00:40:27;;;;;;;6.30;5.40;;;;;;;;;;4987925;28;20236;-78
2021/04/05 00:42:54;;;;;;;8.40;4.70;;;;;;;;;;4986436;28;20233;-79
2021/04/05 00:45:22;;;;;;;7.17;4.97;;;;;;;;;;4968216;28;20232;-78
2021/04/05 00:47:51;;;;;;;7.60;5.13;;;;;;;;;;4989067;28;20240;-80
2021/04/05 00:50:21;;;;;;;6.37;4.47;;;;;;;;;;5019400;28;20231;-79
2021/04/05 00:52:51;;;;;;;6.33;4.53;;;;;;;;;;5017525;28;20235;-80
2021/04/05 00:55:19;;;;;;;6.90;4.70;;;;;;;;;;5018028;28;20247;-80
2021/04/05 00:57:48;;;;;;;6.23;4.90;;;;;;;;;;5087901;27;20636;-79
2021/04/05 01:00:21;;;;;;;8.17;5.20;;;;;;;;;;4996665;28;20251;-81
2021/04/05 01:02:49;;;;;;;7.77;4.83;;;;;;;;;;5003406;28;20237;-79
2021/04/05 01:05:17;;;;;;;7.07;4.93;;;;;;;;;;4993006;28;20228;-80
2021/04/05 01:07:45;;;;;;;7.47;4.60;;;;;;;;;;5015211;28;20382;-80
2021/04/05 01:10:15;;;;;;;6.57;4.90;;;;;;;;;;5017927;28;20227;-80
2021/04/05 01:12:43;;;;;;;6.70;5.37;;;;;;;;;;5037575;28;20231;-80
2021/04/05 01:15:13;;;;;;;8.60;5.60;;;;;;;;;;5008909;28;20232;-80
2021/04/05 01:17:48;;;;;;;6.53;5.67;;;;;;;;;;5012240;28;20235;-80
2021/04/05 01:20:16;;;;;;;8.60;5.77;;;;;;;;;;4990901;28;20232;-80
2021/04/05 01:22:45;;;;;;;7.93;5.57;;;;;;;;;;5018080;28;20244;-77
2021/04/05 01:25:15;;;;;;;7.30;5.30;;;;;;;;;;5009301;28;20740;-80
2021/04/05 01:27:43;;;;;;;6.67;5.20;;;;;;;;;;5007294;28;20236;-82
2021/04/05 01:30:27;;;;;;;6.37;5.17;;;;;;;;;;5038346;28;20228;-80
2021/04/05 01:33:07;;;;;;;7.13;5.17;;;;;;;;;;5012781;28;20234;-80
2021/04/05 01:35:41;;;;;;;7.53;4.80;;;;;;;;;;4996150;28;20235;-81
2021/04/05 01:38:11;;;;;;;8.43;4.90;;;;;;;;;;5030961;28;20232;-80
2021/04/05 01:40:42;;;;;;;5.23;4.70;;;;;;;;;;5103102;27;20623;-80
2021/04/05 01:43:10;;;;;;;7.67;5.13;;;;;;;;;;5004258;28;20239;-80
2021/04/05 01:45:40;;;;;;;8.20;4.60;;;;;;;;;;4992995;28;20597;-80
2021/04/05 01:48:09;;;;;;;8.00;5.07;;;;;;;;;;4971376;28;20236;-80
2021/04/05 01:50:38;;;;;;;6.03;4.90;;;;;;;;;;4988322;28;20233;-79
2021/04/05 01:53:06;;;;;;;6.57;4.90;;;;;;;;;;5070572;28;20227;-77
2021/04/05 01:55:36;;;;;;;6.27;4.70;;;;;;;;;;5014192;28;20240;-80
2021/04/05 01:58:05;;;;;;;8.00;5.10;;;;;;;;;;5019517;28;20724;-78
2021/04/05 02:00:37;;;;;;;9.37;5.27;;;;;;;;;;5007097;28;20245;-81
2021/04/05 02:03:06;;;;;;;8.33;4.93;;;;;;;;;;5010515;28;20227;-80
2021/04/05 02:05:35;;;;;;;7.83;4.90;;;;;;;;;;5013469;28;20239;-79
2021/04/05 02:08:06;;;;;;;8.20;5.20;;;;;;;;;;5009188;28;20227;-78
2021/04/05 02:10:35;;;;;;;4.90;4.33;;;;;;;;;;5000405;28;20228;-79
2021/04/05 02:13:04;;;;;;;9.33;4.87;;;;;;;;;;5006392;28;20595;-78
2021/04/05 02:15:33;;;;;;;8.33;5.10;;;;;;;;;;5009904;28;20239;-79
2021/04/05 02:18:03;;;;;;;8.63;4.87;;;;;;;;;;5005795;28;20229;-77
2021/04/05 02:20:31;;;;;;;7.90;4.67;;;;;;;;;;4998078;28;20230;-78
2021/04/05 02:22:59;;;;;;;6.67;4.77;;;;;;;;;;5011946;28;20723;-78
2021/04/05 02:25:30;;;;;;;6.80;4.50;;;;;;;;;;5006923;28;20735;-77
2021/04/05 02:27:59;;;;;;;9.53;4.90;;;;;;;;;;5009633;28;20239;-81
2021/04/05 02:30:28;;;;;;;9.63;4.97;;;;;;;;;;4996746;28;20227;-79
2021/04/05 02:32:58;;;;;;;6.43;4.63;;;;;;;;;;5012867;28;20224;-78
2021/04/05 02:35:27;;;;;;;7.63;5.00;;;;;;;;;;5006758;28;20226;-77
2021/04/05 02:37:57;;;;;;;5.37;4.40;;;;;;;;;;5013479;28;20599;-77
2021/04/05 02:40:25;;;;;;;5.83;4.27;;;;;;;;;;5029015;28;20236;-78
2021/04/05 02:42:54;;;;;;;8.83;4.43;;;;;;;;;;5008601;28;20708;-78
2021/04/05 02:45:24;;;;;;;5.27;3.73;;;;;;;;;;5000940;28;20229;-77
2021/04/05 02:47:53;;;;;;;5.87;3.90;;;;;;;;;;5000561;28;20250;-79
2021/04/05 02:50:21;;;;;;;6.20;4.60;;;;;;;;;;5017198;28;20584;-77
2021/04/05 02:52:49;;;;;;;6.40;4.30;;;;;;;;;;5010573;28;20233;-78
2021/04/05 02:55:18;;;;;;;7.23;4.80;;;;;;;;;;4979990;28;20727;-79
2021/04/05 02:57:46;;;;;;;10.10;4.70;;;;;;;;;;4972070;28;20239;-79
2021/04/05 03:00:16;;;;;;;7.43;4.80;;;;;;;;;;4976813;28;20246;-78
2021/04/05 03:02:47;;;;;;;6.63;4.47;;;;;;;;;;4964246;28;20227;-78
2021/04/05 03:05:18;;;;;;;7.93;4.23;;;;;;;;;;4991326;28;20237;-78
2021/04/05 03:07:46;;;;;;;6.57;4.10;;;;;;;;;;5012059;28;20242;-78
2021/04/05 03:10:16;;;;;;;5.57;4.23;;;;;;;;;;5022729;28;20228;-83
2021/04/05 03:12:45;;;;;;;5.33;4.27;;;;;;;;;;5022668;28;20211;-82
2021/04/05 03:15:15;;;;;;;6.30;4.57;;;;;;;;;;5013410;28;20227;-80
2021/04/05 03:17:44;;;;;;;5.90;3.73;;;;;;;;;;5019571;28;20222;-82
2021/04/05 03:20:14;;;;;;;6.23;4.40;;;;;;;;;;5047628;28;20214;-80
2021/04/05 03:22:42;;;;;;;5.30;3.90;;;;;;;;;;5017983;28;20230;-79
2021/04/05 03:25:16;;;;;;;4.27;3.47;;;;;;;;;;5026346;28;20229;-79
2021/04/05 03:27:45;;;;;;;5.20;3.73;;;;;;;;;;5014838;28;20233;-77
2021/04/05 03:30:15;;;;;;;4.87;3.63;;;;;;;;;;5004416;28;20234;-79
2021/04/05 03:32:44;;;;;;;6.07;3.90;;;;;;;;;;5019733;28;20221;-77
2021/04/05 03:35:14;;;;;;;5.43;3.50;;;;;;;;;;4976310;28;20719;-78
2021/04/05 03:37:42;;;;;;;8.10;3.73;;;;;;;;;;5013601;28;22518;-78
2021/04/05 03:40:11;;;;;;;5.07;3.80;;;;;;;;;;5003857;28;20313;-79
2021/04/05 03:42:43;;;;;;;6.27;3.90;;;;;;;;;;4984505;28;20241;-77
2021/04/05 03:45:17;;;;;;;6.10;3.67;;;;;;;;;;4984384;28;20238;-78
2021/04/05 03:47:52;;;;;;;6.30;3.70;;;;;;;;;;5002793;28;20245;-78
2021/04/05 03:50:22;;;;;;;5.87;3.90;;;;;;;;;;5004288;28;20228;-78
2021/04/05 03:52:55;;;;;;;5.43;4.13;;;;;;;;;;5017756;28;20636;-79
2021/04/05 03:55:26;;;;;;;5.23;3.67;;;;;;;;;;5033467;28;20224;-80
2021/04/05 03:57:56;;;;;;;4.43;3.67;;;;;;;;;;5013139;28;20238;-82
2021/04/05 04:00:26;;;;;;;7.03;3.93;;;;;;;;;;5008162;28;20226;-79
2021/04/05 04:02:55;;;;;;;5.80;4.17;;;;;;;;;;5001860;28;20232;-80
2021/04/05 04:05:28;;;;;;;6.03;4.60;;;;;;;;;;5029610;28;20232;-78
2021/04/05 04:08:02;;;;;;;6.77;3.93;;;;;;;;;;5009121;28;20246;-79
2021/04/05 04:10:31;;;;;;;7.87;4.47;;;;;;;;;;5000667;28;20233;-78
2021/04/05 04:13:00;;;;;;;4.63;3.90;;;;;;;;;;4989665;28;20242;-78
2021/04/05 04:15:28;;;;;;;4.93;3.77;;;;;;;;;;5006757;28;20731;-78
2021/04/05 04:17:57;;;;;;;5.93;4.20;;;;;;;;;;4994661;28;20230;-79
2021/04/05 04:20:26;;;;;;;5.63;4.03;;;;;;;;;;5015697;28;20246;-78
2021/04/05 04:22:55;;;;;;;5.57;3.77;;;;;;;;;;4994714;28;20246;-78
2021/04/05 04:25:23;;;;;;;6.97;3.80;;;;;;;;;;5008671;28;20227;-78
2021/04/05 04:27:51;;;;;;;5.57;4.10;;;;;;;;;;4985383;28;20237;-77
2021/04/05 04:30:32;;;;;;;6.00;3.97;;;;;;;;;;5010094;28;20235;-77
2021/04/05 04:33:05;;;;;;;6.07;3.53;;;;;;;;;;5009157;28;20234;-77
2021/04/05 04:35:34;;;;;;;6.57;4.20;;;;;;;;;;5025451;28;20234;-80
2021/04/05 04:38:02;;;;;;;6.33;3.87;;;;;;;;;;4988113;28;20257;-78
2021/04/05 04:40:31;;;;;;;6.87;4.63;;;;;;;;;;5002136;28;20604;-78
2021/04/05 04:43:00;;;;;;;5.20;4.20;;;;;;;;;;5011722;28;20243;-79
2021/04/05 04:45:28;;;;;;;5.13;4.27;;;;;;;;;;5001257;28;20309;-77
2021/04/05 04:47:56;;;;;;;5.03;4.50;;;;;;;;;;5008680;28;20270;-78
2021/04/05 04:50:27;;;;;;;6.17;4.27;;;;;;;;;;5011589;28;20233;-77
2021/04/05 04:52:55;;;;;;;5.33;4.17;;;;;;;;;;5010729;28;20623;-78
2021/04/05 04:55:24;;;;;;;4.97;4.33;;;;;;;;;;5031863;28;20587;-82
2021/04/05 04:57:55;;;;;;;5.43;4.13;;;;;;;;;;5026537;28;20229;-81
2021/04/05 05:00:24;;;;;;;5.93;4.47;;;;;;;;;;4986834;28;20729;-78
2021/04/05 05:02:52;;;;;;;7.20;4.13;;;;;;;;;;4981357;28;20249;-78
2021/04/05 05:05:21;;;;;;;6.67;4.67;;;;;;;;;;4979666;28;20229;-79
2021/04/05 05:07:50;;;;;;;5.67;4.13;;;;;;;;;;4994534;28;20439;-77
2021/04/05 05:10:18;;;;;;;7.37;4.43;;;;;;;;;;5009564;28;20237;-79
2021/04/05 05:12:45;;;;;;;6.97;4.63;;;;;;;;;;4989347;28;21619;-79
2021/04/05 05:15:15;;;;;;;5.17;4.03;;;;;;;;;;5010243;28;20771;-78
2021/04/05 05:17:44;;;;;;;7.10;4.27;;;;;;;;;;5004112;28;20614;-78
2021/04/05 05:20:13;;;;;;;5.57;4.33;;;;;;;;;;4988470;28;20626;-80
2021/04/05 05:22:46;;;;;;;5.50;4.40;;;;;;;;;;5000218;28;20238;-78
2021/04/05 05:25:18;;;;;;;7.87;4.07;;;;;;;;;;4989156;28;20242;-80
2021/04/05 05:27:49;;;;;;;5.33;4.10;;;;;;;;;;4978486;28;20240;-79
2021/04/05 05:30:21;;;;;;;4.87;4.03;;;;;;;;;;4999290;28;20230;-78
2021/04/05 05:32:50;;;;;;;5.70;4.53;;;;;;;;;;4991693;28;20237;-78
2021/04/05 05:35:19;;;;;;;7.33;4.07;;;;;;;;;;5000774;28;20726;-78
2021/04/05 05:37:46;;;;;;;4.90;4.37;;;;;;;;;;5030055;28;20239;-80
2021/04/05 05:40:19;;;;;;;6.83;4.23;;;;;;;;;;5021865;28;20224;-78
2021/04/05 05:43:05;;;;;;;7.47;4.40;;;;;;;;;;5047618;28;20226;-78
2021/04/05 05:45:37;;;;;;;5.33;4.57;;;;;;;;;;5015590;28;20230;-77
2021/04/05 05:48:10;;;;;;;7.67;4.60;;;;;;;;;;5023092;28;20230;-78
2021/04/05 05:50:47;;;;;;;8.60;4.30;;;;;;;;;;5011079;28;20237;-78
2021/04/05 05:53:23;;;;;;;7.03;4.73;;;;;;;;;;5013386;28;20223;-78
2021/04/05 05:56:05;;;;;;;6.93;4.27;;;;;;;;;;4994466;28;20261;-78
2021/04/05 05:58:38;;;;;;;6.50;4.17;;;;;;;;;;5014685;28;20245;-78
2021/04/05 06:01:24;;;;;;;6.07;3.97;;;;;;;;;;5006199;28;20230;-79
2021/04/05 06:03:59;;;;;;;6.63;4.47;;;;;;;;;;5005972;28;20239;-78
2021/04/05 06:06:33;;;;;;;6.07;4.10;;;;;;;;;;4987663;28;20242;-78
2021/04/05 06:09:18;;;;;;;5.97;4.10;;;;;;;;;;5012210;28;20243;-78
2021/04/05 06:11:52;;;;;;;5.17;3.80;;;;;;;;;;5008427;28;20231;-77
2021/04/05 06:14:32;;;;;;;7.87;3.97;;;;;;;;;;4990808;28;20234;-78
2021/04/05 06:17:05;;;;;;;6.93;4.27;;;;;;;;;;5003795;28;20234;-78
2021/04/05 06:19:39;;;;;;;5.73;4.00;;;;;;;;;;5003638;28;20232;-78
2021/04/05 06:22:14;;;;;;;5.57;3.77;;;;;;;;;;5006128;28;20235;-78
2021/04/05 06:24:46;;;;;;;8.93;4.23;;;;;;;;;;4987969;28;20237;-78
2021/04/05 06:27:16;;;;;;;7.17;4.30;;;;;;;;;;5009301;28;20235;-78
2021/04/05 06:29:58;;;;;;;5.03;3.73;;;;;;;;;;5035869;28;20231;-78
2021/04/05 06:32:38;;;;;;;5.97;4.20;;;;;;;;;;5003176;28;20240;-82
2021/04/05 06:35:22;;;;;;;7.27;4.17;;;;;;;;;;5002191;28;20232;-78
2021/04/05 06:37:53;;;;;;;6.87;4.17;;;;;;;;;;4999954;28;20233;-79
2021/04/05 06:40:22;;;;;;;4.37;3.47;;;;;;;;;;4989655;28;20228;-77
2021/04/05 06:43:17;;;;;;;5.43;3.40;;;;;;;;;;4993110;28;20220;-80
2021/04/05 06:46:05;;;;;;;6.17;3.53;;;;;;;;;;4991833;28;20221;-78
2021/04/05 06:49:11;;;;;;;6.23;3.87;;;;;;;;;;5003899;28;20224;-77
2021/04/05 06:52:03;;;;;;;5.23;4.00;;;;;;;;;;4969380;28;20233;-77
2021/04/05 06:55:07;;;;;;;7.90;4.10;;;;;;;;;;4988810;28;20240;-78
2021/04/05 06:57:48;;;;;;;5.00;3.27;;;;;;;;;;5065231;28;20228;-78
2021/04/05 07:00:22;;;;;;;4.17;3.13;;;;;;;;;;4967540;28;20228;-77
2021/04/05 07:03:12;;;;;;;37.40;4.33;;;;;;;;;;4997962;28;20216;-78
2021/04/05 07:05:54;;;;;;;4.10;3.00;;;;;;;;;;5106187;27;20222;-76
2021/04/05 07:08:22;;;;;;;6.07;3.30;;;;;;;;;;4987052;28;20243;-77
2021/04/05 07:10:59;;;;;;;6.43;3.10;;;;;;;;;;5004437;28;20225;-77
2021/04/05 07:13:30;;;;;;;7.27;2.97;;;;;;;;;;5010903;28;20223;-78
2021/04/05 07:16:03;;;;;;;7.00;3.40;;;;;;;;;;5007798;28;20225;-78
2021/04/05 07:18:38;;;;;;;4.87;3.37;;;;;;;;;;4974918;28;20229;-78
2021/04/05 07:21:18;;;;;;;5.27;3.00;;;;;;;;;;5002734;28;20229;-80
2021/04/05 07:23:53;;;;;;;7.00;2.90;;;;;;;;;;4983655;28;20232;-78
2021/04/05 07:26:25;;;;;;;5.87;3.17;;;;;;;;;;5014204;28;20224;-79
2021/04/05 07:28:58;;;;;;;3.87;3.03;;;;;;;;;;5006382;28;20247;-78
2021/04/05 07:31:38;;;;;;;6.80;3.27;;;;;;;;;;5017258;28;20224;-79
2021/04/05 07:34:28;;;;;;;4.23;3.20;;;;;;;;;;5007757;28;20231;-77
2021/04/05 07:37:09;;;;;;;7.07;3.40;;;;;;;;;;5011635;28;20236;-78
2021/04/05 07:39:42;;;;;;;7.67;3.67;;;;;;;;;;5014233;28;20233;-79
2021/04/05 07:42:15;;;;;;;7.47;3.57;;;;;;;;;;4995630;28;20247;-78
2021/04/05 07:44:49;;;;;;;3.97;3.40;;;;;;;;;;5002951;28;20235;-78
2021/04/05 07:47:29;;;;;;;6.43;2.90;;;;;;;;;;5018266;28;20629;-79
2021/04/05 07:50:00;;;;;;;5.57;3.13;;;;;;;;;;4994848;28;20230;-79
2021/04/05 07:52:33;;;;;;;4.07;3.20;;;;;;;;;;5027404;28;20243;-81
2021/04/05 07:55:03;;;;;;;7.60;3.23;;;;;;;;;;5004268;28;20229;-79
2021/04/05 07:57:35;;;;;;;6.73;3.47;;;;;;;;;;4999205;28;20307;-78
2021/04/05 08:00:09;;;;;;;4.13;2.97;;;;;;;;;;5009472;28;20599;-81
2021/04/05 08:02:48;;;;;;;5.60;3.37;;;;;;;;;;5011650;28;20246;-83
2021/04/05 08:05:31;;;;;;;5.47;3.13;;;;;;;;;;5002757;28;20276;-82
2021/04/05 08:08:13;;;;;;;10.33;3.73;;;;;;;;;;5006331;28;20242;-80
2021/04/05 08:10:49;;;;;;;8.20;3.20;;;;;;;;;;4994649;28;20236;-79
2021/04/05 08:13:27;;;;;;;5.97;3.67;;;;;;;;;;5003695;28;20733;-79
2021/04/05 08:15:59;;;;;;;4.27;3.10;;;;;;;;;;5014435;28;20228;-81
2021/04/05 08:18:33;;;;;;;4.77;3.20;;;;;;;;;;4997312;28;20221;-78
2021/04/05 08:21:06;;;;;;;5.03;3.53;;;;;;;;;;4989948;28;20233;-79
2021/04/05 08:23:44;;;;;;;6.50;4.13;;;;;;;;;;5014186;28;20249;-79
2021/04/05 08:26:25;;;;;;;4.13;2.90;;;;;;;;;;4994871;28;20220;-78
2021/04/05 08:28:59;;;;;;;4.03;3.30;;;;;;;;;;5007432;28;20698;-78
2021/04/05 08:31:34;;;;;;;5.67;3.20;;;;;;;;;;4994950;28;20232;-78
2021/04/05 08:34:12;;;;;;;4.30;2.77;;;;;;;;;;5008506;28;20721;-78
2021/04/05 08:36:53;;;;;;;5.20;2.80;;;;;;;;;;4995045;28;20232;-81
2021/04/05 08:39:26;;;;;;;4.57;3.07;;;;;;;;;;5016368;28;20228;-79
2021/04/05 08:42:00;;;;;;;6.00;3.30;;;;;;;;;;5016062;28;20229;-78
2021/04/05 08:44:35;;;;;;;4.30;2.70;;;;;;;;;;4998045;28;20249;-79
2021/04/05 08:47:04;;;;;;;6.37;3.07;;;;;;;;;;5011463;28;20741;-78
2021/04/05 08:49:33;;;;;;;6.07;3.10;;;;;;;;;;5011302;28;20233;-78
2021/04/05 08:52:05;;;;;;;9.23;2.83;;;;;;;;;;5011278;28;20620;-78
2021/04/05 08:54:37;;;;;;;6.57;3.10;;;;;;;;;;4988862;28;20229;-77
2021/04/05 08:57:08;;;;;;;4.17;3.00;;;;;;;;;;4993566;28;20716;-78
2021/04/05 08:59:39;;;;;;;4.20;3.30;;;;;;;;;;4998149;28;20229;-81
2021/04/05 09:02:17;;;;;;;5.53;3.00;;;;;;;;;;4975076;28;20224;-79
2021/04/05 09:04:47;;;;;;;4.10;3.07;;;;;;;;;;5000233;28;20228;-79
2021/04/05 09:07:21;;;;;;;7.53;3.03;;;;;;;;;;5009104;28;20232;-78
2021/04/05 09:09:52;;;;;;;3.70;2.70;;;;;;;;;;5004991;28;20240;-79
2021/04/05 09:12:21;;;;;;;3.87;2.93;;;;;;;;;;4991165;28;20228;-81
2021/04/05 09:15:04;;;;;;;7.13;2.77;;;;;;;;;;4998876;28;20228;-78
2021/04/05 09:17:40;;;;;;;4.80;3.10;;;;;;;;;;5008463;28;20240;-78
2021/04/05 09:20:24;;;;;;;5.17;2.97;;;;;;;;;;5000532;28;20200;-78
2021/04/05 09:23:15;;;;;;;5.17;2.93;;;;;;;;;;5007899;28;20217;-78
2021/04/05 09:25:57;;;;;;;4.30;2.93;;;;;;;;;;5085819;28;20228;-79
2021/04/05 09:28:51;;;;;;;7.53;3.20;;;;;;;;;;4993015;28;20639;-83
2021/04/05 09:31:35;;;;;;;5.33;3.17;;;;;;;;;;5024733;27;20232;-78
2021/04/05 09:34:17;;;;;;;6.47;3.23;;;;;;;;;;5011525;28;20225;-79
2021/04/05 09:37:20;;;;;;;4.77;2.80;;;;;;;;;;5007550;28;20243;-79
2021/04/05 09:40:06;;;;;;;4.57;3.13;;;;;;;;;;5009224;28;20232;-79
2021/04/05 09:43:08;;;;;;;6.20;3.50;;;;;;;;;;4993745;28;20238;-78
2021/04/05 09:45:42;;;;;;;3.57;2.70;;;;;;;;;;5005923;28;20464;-80
2021/04/05 09:48:48;;;;;;;9.10;3.13;;;;;;;;;;5000972;28;20223;-79
2021/04/05 09:51:50;;;;;;;5.33;2.90;;;;;;;;;;5007825;28;20602;-78
2021/04/05 09:54:28;;;;;;;3.30;2.97;;;;;;;;;;4995567;28;20251;-82
2021/04/05 09:57:00;;;;;;;5.17;3.40;;;;;;;;;;5024400;28;20290;-80
2021/04/05 09:59:43;;;;;;;4.57;3.00;;;;;;;;;;5024863;27;20251;-82
2021/04/05 10:02:15;;;;;;;3.97;3.20;;;;;;;;;;5017137;28;20507;-82
2021/04/05 10:04:45;;;;;;;5.00;3.00;;;;;;;;;;5011086;28;20225;-81
2021/04/05 10:07:14;;;;;;;5.47;3.10;;;;;;;;;;4975357;28;20636;-80
2021/04/05 10:09:44;;;;;;;6.07;3.23;;;;;;;;;;5026282;28;20229;-79
2021/04/05 10:12:12;;;;;;;4.53;3.27;;;;;;;;;;5005733;28;20228;-79
2021/04/05 10:15:00;;;;;;;4.30;3.33;;;;;;;;;;5004448;28;20225;-79
2021/04/05 10:17:30;;;;;;;4.80;2.90;;;;;;;;;;4975527;28;20228;-79
2021/04/05 10:20:04;;;;;;;7.67;3.90;;;;;;;;;;5024211;28;20626;-78
2021/04/05 10:22:39;;;;;;;4.87;2.90;;;;;;;;;;5001749;28;20233;-80
2021/04/05 10:25:09;;;;;;;5.03;3.43;;;;;;;;;;5014614;28;20701;-79
2021/04/05 10:27:37;;;;;;;5.37;3.80;;;;;;;;;;5014057;28;20232;-77
2021/04/05 10:30:07;;;;;;;5.40;3.13;;;;;;;;;;5025136;28;20224;-80
2021/04/05 10:32:35;;;;;;;3.93;3.40;;;;;;;;;;5021418;28;20776;-77
2021/04/05 10:35:03;;;;;;;4.23;3.03;;;;;;;;;;5012920;28;20245;-78
2021/04/05 10:37:32;;;;;;;6.97;3.90;;;;;;;;;;5017973;28;20236;-79
2021/04/05 10:40:01;;;;;;;5.33;3.33;;;;;;;;;;5024963;28;20239;-79
2021/04/05 10:42:37;;;;;;;4.20;3.37;;;;;;;;;;5011956;28;20235;-81
2021/04/05 10:45:07;;;;;;;6.70;3.23;;;;;;;;;;5028063;28;20228;-78
2021/04/05 10:47:52;;;;;;;5.73;3.27;;;;;;;;;;4988468;28;20233;-79
2021/04/05 10:50:25;;;;;;;4.53;3.20;;;;;;;;;;4985972;28;20220;-78
2021/04/05 10:52:54;;;;;;;6.87;3.80;;;;;;;;;;4984768;28;20745;-79
2021/04/05 10:55:23;;;;;;;6.00;3.50;;;;;;;;;;5011204;28;20220;-78
2021/04/05 10:57:55;;;;;;;4.93;3.50;;;;;;;;;;4975937;28;20233;-78
2021/04/05 11:00:25;;;;;;;4.60;3.00;;;;;;;;;;4985238;28;20233;-78
2021/04/05 11:02:56;;;;;;;5.47;3.30;;;;;;;;;;4986682;28;20607;-78
2021/04/05 11:05:24;;;;;;;5.30;3.63;;;;;;;;;;5005352;28;20243;-78
2021/04/05 11:07:57;;;;;;;9.10;4.40;;;;;;;;;;5001562;28;20601;-78
2021/04/05 11:10:29;;;;;;;6.53;3.80;;;;;;;;;;5007455;28;20603;-78
2021/04/05 11:13:03;;;;;;;5.20;3.37;;;;;;;;;;5091157;28;20263;-78
2021/04/05 11:15:32;;;;;;;5.97;3.27;;;;;;;;;;5006199;28;20626;-78
2021/04/05 11:18:03;;;;;;;7.40;3.13;;;;;;;;;;5012052;28;20232;-78
2021/04/05 11:20:32;;;;;;;5.03;3.43;;;;;;;;;;5015634;28;20221;-78
2021/04/05 11:23:03;;;;;;;7.40;4.00;;;;;;;;;;4994708;28;20225;-79
2021/04/05 11:25:34;;;;;;;4.23;3.00;;;;;;;;;;5010644;28;20233;-78
2021/04/05 11:28:10;;;;;;;6.67;3.43;;;;;;;;;;5006801;28;20228;-78
2021/04/05 11:30:39;;;;;;;4.47;3.10;;;;;;;;;;4993701;28;20236;-78
2021/04/05 11:33:11;;;;;;;4.47;3.27;;;;;;;;;;4971526;28;20763;-79
2021/04/05 11:35:40;;;;;;;4.43;3.50;;;;;;;;;;5092481;28;20604;-76
2021/04/05 11:38:11;;;;;;;5.10;3.70;;;;;;;;;;5011785;28;20229;-78
2021/04/05 11:40:40;;;;;;;3.70;3.20;;;;;;;;;;5014856;28;20700;-78
2021/04/05 11:43:15;;;;;;;4.63;3.10;;;;;;;;;;5007446;28;20225;-79
2021/04/05 11:45:45;;;;;;;4.73;3.20;;;;;;;;;;5002684;28;20236;-76
2021/04/05 11:48:17;;;;;;;5.20;3.27;;;;;;;;;;4996850;28;20235;-77
2021/04/05 11:50:45;;;;;;;4.33;3.20;;;;;;;;;;5013697;28;20251;-76
2021/04/05 11:53:20;;;;;;;3.80;3.10;;;;;;;;;;5010056;28;20320;-77
2021/04/05 11:55:50;;;;;;;3.57;2.83;;;;;;;;;;5010141;28;20230;-77
2021/04/05 11:58:25;;;;;;;4.40;2.80;;;;;;;;;;4998116;28;20229;-76
2021/04/05 12:00:58;;;;;;;6.15;2.35;;;;;;;;;;4991299;28;20228;-79
2021/04/05 12:03:32;;;;;;;6.63;2.60;;;;;;;;;;4989026;28;20224;-78
2021/04/05 12:06:05;;;;;;;4.00;2.42;;;;;;;;;;4986614;28;20236;-77
2021/04/05 12:08:34;;;;;;;3.22;2.90;;;;;;;;;;5005409;28;20263;-78
2021/04/05 12:11:04;;;;;;;4.00;2.53;;;;;;;;;;5018318;28;20241;-78
2021/04/05 12:13:37;;;;;;;3.20;2.25;;;;;;;;;;4980578;28;20256;-78
2021/04/05 12:16:07;;;;;;;3.72;2.25;;;;;;;;;;4984489;28;20221;-78
2021/04/05 12:18:34;;;;;;;3.25;2.33;;;;;;;;;;4998901;28;20243;-77
2021/04/05 12:21:05;;;;;;;3.38;2.30;;;;;;;;;;5005121;28;20229;-78
2021/04/05 12:23:32;;;;;;;6.82;2.50;;;;;;;;;;4984069;28;20609;-78
2021/04/05 12:26:01;;;;;;;6.20;2.80;;;;;;;;;;4985850;28;20221;-78
2021/04/05 12:28:35;;;;;;;3.30;2.40;;;;;;;;;;5013620;28;20241;-79
2021/04/05 12:31:04;;;;;;;6.37;2.30;;;;;;;;;;5015139;28;20225;-80
2021/04/05 12:33:54;;;;;;;3.42;2.72;;;;;;;;;;5011520;28;20241;-79
2021/04/05 12:36:30;;;;;;;2.72;2.42;;;;;;;;;;5090261;27;20237;-78
2021/04/05 12:38:59;;;;;;;3.65;2.55;;;;;;;;;;5011848;28;20221;-78
2021/04/05 12:41:34;;;;;;;6.00;5.07;;;;;;;;;;5003466;28;20241;-78
2021/04/05 12:44:05;;;;;;;6.63;1.70;;;;;;;;;;5000627;28;20233;-77
2021/04/05 12:46:33;;;;;;;2.97;1.98;;;;;;;;;;5004550;28;20236;-78
2021/04/05 12:49:01;;;;;;;4.78;2.40;;;;;;;;;;4995663;28;20711;-77
2021/04/05 12:51:29;;;;;;;4.83;2.30;;;;;;;;;;5009655;28;20234;-76
2021/04/05 12:54:02;;;;;;;3.43;2.20;;;;;;;;;;4986509;28;20224;-77
2021/04/05 12:56:36;;;;;;;6.07;2.30;;;;;;;;;;4992413;28;20240;-78
2021/04/05 12:59:05;;;;;;;3.67;2.17;;;;;;;;;;4995473;28;20769;-77
2021/04/05 13:01:35;;;;;;;5.57;2.23;;;;;;;;;;4999695;28;20217;-77
2021/04/05 13:04:04;;;;;;;5.83;3.53;;;;;;;;;;4999354;28;20226;-77
2021/04/05 13:06:41;;;;;;;2.47;1.97;;;;;;;;;;4979930;28;20228;-77
2021/04/05 13:09:14;;;;;;;7.03;1.90;;;;;;;;;;4984271;28;20228;-78
2021/04/05 13:11:44;;;;;;;4.97;2.17;;;;;;;;;;4978453;28;20599;-77
2021/04/05 13:14:16;;;;;;;3.33;1.87;;;;;;;;;;4984693;28;20225;-77
2021/04/05 13:16:49;;;;;;;3.20;1.80;;;;;;;;;;4999152;28;20237;-78
2021/04/05 13:19:18;;;;;;;4.57;1.90;;;;;;;;;;5101427;27;20237;-77
2021/04/05 13:21:47;;;;;;;3.50;2.13;;;;;;;;;;5001916;28;20228;-78
2021/04/05 13:24:20;;;;;;;4.50;2.07;;;;;;;;;;5010021;28;20223;-80
2021/04/05 13:26:57;;;;;;;4.33;2.30;;;;;;;;;;5001294;28;20237;-78
2021/04/05 13:29:28;;;;;;;3.90;2.07;;;;;;;;;;5002728;28;20223;-77
2021/04/05 13:31:57;;;;;;;4.97;3.10;;;;;;;;;;5005651;28;20228;-78
2021/04/05 13:34:27;;;;;;;3.97;2.77;;;;;;;;;;5002718;28;20345;-80
2021/04/05 13:36:56;;;;;;;4.30;1.93;;;;;;;;;;5003998;28;20229;-77
2021/04/05 13:39:25;;;;;;;8.07;2.80;;;;;;;;;;5018329;28;20729;-77
2021/04/05 13:42:01;;;;;;;6.37;1.83;;;;;;;;;;5004385;28;20232;-77
2021/04/05 13:44:32;;;;;;;3.73;2.07;;;;;;;;;;5003472;28;20247;-77
2021/04/05 13:47:02;;;;;;;2.27;1.50;;;;;;;;;;5005397;28;20246;-77
2021/04/05 13:49:34;;;;;;;5.00;1.97;;;;;;;;;;5007882;28;20230;-78
2021/04/05 13:52:04;;;;;;;2.93;2.20;;;;;;;;;;4999594;28;20240;-78
2021/04/05 13:54:35;;;;;;;4.40;2.10;;;;;;;;;;4986706;28;20233;-80
2021/04/05 13:57:05;;;;;;;2.60;1.70;;;;;;;;;;4996067;28;20232;-78
2021/04/05 13:59:34;;;;;;;2.13;1.30;;;;;;;;;;5088295;27;20225;-78
2021/04/05 14:02:03;;;;;;;5.03;2.27;;;;;;;;;;5002658;28;20236;-79
2021/04/05 14:04:40;;;;;;;5.00;2.00;;;;;;;;;;4970376;28;20251;-78
2021/04/05 14:07:07;;;;;;;3.97;1.87;;;;;;;;;;4996926;28;20438;-77
2021/04/05 14:09:37;;;;;;;3.97;1.80;;;;;;;;;;4995383;28;20674;-80
2021/04/05 14:12:06;;;;;;;3.50;1.90;;;;;;;;;;4988475;28;20227;-78
2021/04/05 14:14:36;;;;;;;3.97;1.87;;;;;;;;;;4998664;28;20233;-79
2021/04/05 14:17:07;;;;;;;2.97;1.87;;;;;;;;;;5002527;28;20623;-77
2021/04/05 14:19:39;;;;;;;2.73;1.70;;;;;;;;;;5009625;28;20236;-78
2021/04/05 14:22:13;;;;;;;2.10;1.70;;;;;;;;;;5008557;28;20237;-79
2021/04/05 14:24:43;;;;;;;3.23;1.63;;;;;;;;;;5004215;28;20235;-78
2021/04/05 14:27:12;;;;;;;4.73;1.50;;;;;;;;;;4984479;28;20218;-78
2021/04/05 14:29:48;;;;;;;3.20;1.50;;;;;;;;;;5086817;28;20232;-78
2021/04/05 14:32:21;;;;;;;4.00;2.07;;;;;;;;;;5000224;28;20417;-78
2021/04/05 14:34:51;;;;;;;3.10;1.90;;;;;;;;;;4998469;28;20236;-78
2021/04/05 14:37:29;;;;;;;3.60;2.00;;;;;;;;;;5038089;28;20229;-78
2021/04/05 14:40:00;;;;;;;3.07;1.73;;;;;;;;;;5018450;28;20259;-78
2021/04/05 14:42:30;;;;;;;4.50;1.60;;;;;;;;;;4979771;28;20229;-78
2021/04/05 14:45:00;;;;;;;6.20;1.80;;;;;;;;;;4981199;28;20225;-79
2021/04/05 14:47:29;;;;;;;4.13;1.47;;;;;;;;;;5004105;28;20656;-79
2021/04/05 14:50:00;;;;;;;5.20;2.30;;;;;;;;;;5004113;28;20715;-78
2021/04/05 14:52:30;;;;;;;4.23;1.67;;;;;;;;;;4997426;28;20225;-78
2021/04/05 14:54:59;;;;;;;8.90;4.47;;;;;;;;;;5028275;28;20237;-78
2021/04/05 14:57:33;;;;;;;4.97;2.30;;;;;;;;;;4979112;28;20225;-78
2021/04/05 15:00:07;;;;;;;5.30;2.20;;;;;;;;;;5077890;28;20730;-78
2021/04/05 15:02:36;;;;;;;6.07;2.30;;;;;;;;;;4990517;28;20234;-80
2021/04/05 15:05:04;;;;;;;5.47;2.60;;;;;;;;;;4977074;28;20226;-79
2021/04/05 15:07:35;;;;;;;8.73;2.50;;;;;;;;;;5080322;28;20386;-78
2021/04/05 15:10:05;;;;;;;4.50;2.10;;;;;;;;;;4999571;28;20760;-78
2021/04/05 15:12:34;;;;;;;6.00;2.87;;;;;;;;;;4978968;28;20236;-78
2021/04/05 15:15:03;;;;;;;4.17;2.50;;;;;;;;;;4990579;28;20232;-78